Time;durP1;ratioP1;P1;durP2;ratioP2;P2;SDS_P1;SDS_P2;PMS_P1;PMS_P2;Temp;Humidity;BMP_temperature;BMP_pressure;BME280_temperature;BME280_humidity;BME280_pressure;Samples;Min_cycle;Max_cycle;Signal;HPM_P1;HPM_P2
2021/12/18 00:00:06;;;;;;;13.48;6.80;;;3.10;99.90;;;;;;5031748;28;20037;-78
2021/12/18 00:02:32;;;;;;;13.52;6.93;;;3.00;99.90;;;;;;5036302;28;20026;-77
2021/12/18 00:04:57;;;;;;;14.88;8.30;;;3.00;99.90;;;;;;5035543;28;20029;-77
2021/12/18 00:07:23;;;;;;;11.02;5.82;;;3.10;99.90;;;;;;5035415;28;20177;-77
2021/12/18 00:09:51;;;;;;;15.10;7.55;;;3.40;99.90;;;;;;5035595;28;20059;-78
2021/12/18 00:12:17;;;;;;;14.00;7.03;;;3.10;99.90;;;;;;5032531;28;20025;-77
2021/12/18 00:14:42;;;;;;;12.90;6.28;;;3.10;99.90;;;;;;5034305;28;20032;-77
2021/12/18 00:17:08;;;;;;;16.70;7.93;;;3.10;99.90;;;;;;5033194;28;20483;-78
2021/12/18 00:19:34;;;;;;;15.00;8.63;;;3.00;99.90;;;;;;5031630;28;20482;-77
2021/12/18 00:22:00;;;;;;;12.52;6.22;;;3.00;99.90;;;;;;5032405;28;20028;-79
2021/12/18 00:24:26;;;;;;;24.67;9.00;;;3.10;99.90;;;;;;5031397;28;20121;-78
2021/12/18 00:26:53;;;;;;;16.83;8.63;;;3.10;99.90;;;;;;5032731;28;20057;-78
2021/12/18 00:29:19;;;;;;;16.20;7.05;;;3.10;99.90;;;;;;5031553;28;20426;-78
2021/12/18 00:31:45;;;;;;;19.08;8.55;;;3.10;99.90;;;;;;5033427;28;20028;-77
2021/12/18 00:34:11;;;;;;;17.27;7.45;;;3.10;99.90;;;;;;5031519;28;20029;-77
2021/12/18 00:36:36;;;;;;;12.68;7.10;;;3.10;99.90;;;;;;5031295;28;20184;-78
2021/12/18 00:39:03;;;;;;;14.38;5.80;;;3.20;99.90;;;;;;5031509;28;20041;-77
2021/12/18 00:44:12;;;;;;;15.65;6.53;;;3.20;99.90;;;;;;5032850;28;20025;-79
2021/12/18 00:46:42;;;;;;;14.52;6.80;;;3.20;99.90;;;;;;5031635;28;20120;-77
2021/12/18 00:49:11;;;;;;;12.25;5.82;;;3.30;99.90;;;;;;5032769;28;20025;-78
2021/12/18 00:51:37;;;;;;;18.58;5.97;;;3.20;99.90;;;;;;5031397;28;20021;-78
2021/12/18 00:54:03;;;;;;;14.55;7.38;;;3.10;99.90;;;;;;5030782;28;20048;-78
2021/12/18 00:56:29;;;;;;;15.27;7.28;;;3.00;99.90;;;;;;5031112;28;20405;-77
2021/12/18 00:58:55;;;;;;;13.50;6.43;;;3.00;99.90;;;;;;5031800;28;20025;-76
2021/12/18 01:01:23;;;;;;;21.35;8.18;;;3.10;99.90;;;;;;5032114;28;20033;-77
2021/12/18 01:03:50;;;;;;;18.10;6.97;;;3.00;99.90;;;;;;5032125;28;20030;-78
2021/12/18 01:06:18;;;;;;;12.77;5.88;;;2.90;99.90;;;;;;5031492;28;20029;-78
2021/12/18 01:08:45;;;;;;;15.15;6.70;;;2.80;99.90;;;;;;5030464;28;20025;-78
2021/12/18 01:16:46;;;;;;;12.50;6.15;;;2.80;99.90;;;;;;5013142;28;20094;-77
2021/12/18 01:24:40;;;;;;;21.13;9.15;;;2.70;99.90;;;;;;5036556;28;20032;-77
2021/12/18 01:27:06;;;;;;;11.15;5.63;;;2.80;99.90;;;;;;5031651;28;20025;-77
2021/12/18 01:29:32;;;;;;;16.85;6.97;;;2.80;99.90;;;;;;5032441;28;20025;-76
2021/12/18 01:31:57;;;;;;;19.27;6.75;;;3.00;99.90;;;;;;5034467;28;20060;-76
2021/12/18 01:34:23;;;;;;;11.52;6.55;;;3.00;99.90;;;;;;5040842;28;20344;-77
2021/12/18 01:36:49;;;;;;;12.63;5.85;;;3.00;99.90;;;;;;5034896;28;20022;-77
2021/12/18 01:39:14;;;;;;;12.48;6.38;;;3.00;99.90;;;;;;5019391;28;20030;-78
2021/12/18 01:45:00;;;;;;;22.42;6.30;;;3.00;99.90;;;;;;4991725;28;20058;-76
2021/12/18 01:52:55;;;;;;;20.88;8.35;;;2.80;99.90;;;;;;5032054;28;20060;-77
2021/12/18 01:55:34;;;;;;;13.45;6.30;;;2.80;99.90;;;;;;5031668;28;20048;-78
2021/12/18 01:58:00;;;;;;;8.15;4.70;;;2.70;99.90;;;;;;5032627;28;20037;-77
2021/12/18 02:00:35;;;;;;;20.52;8.32;;;2.60;99.90;;;;;;5032853;28;20483;-78
2021/12/18 02:03:01;;;;;;;16.60;6.93;;;2.50;99.90;;;;;;5033575;28;20013;-77
2021/12/18 02:05:27;;;;;;;15.13;6.97;;;2.40;99.90;;;;;;5031623;28;20419;-77
2021/12/18 02:07:53;;;;;;;18.60;6.70;;;2.30;99.90;;;;;;5030704;28;20037;-79
2021/12/18 02:10:22;;;;;;;22.92;7.90;;;2.20;99.90;;;;;;5031438;28;20029;-78
2021/12/18 02:13:00;;;;;;;14.13;6.68;;;2.00;99.90;;;;;;5030237;28;20033;-79
2021/12/18 02:20:58;;;;;;;12.60;4.78;;;1.90;99.90;;;;;;5035464;28;20064;-78
2021/12/18 02:23:24;;;;;;;15.60;6.00;;;1.80;99.90;;;;;;5031880;28;20025;-78
2021/12/18 02:25:51;;;;;;;12.13;5.53;;;1.70;99.90;;;;;;5030395;28;20027;-79
2021/12/18 02:28:22;;;;;;;14.18;3.92;;;1.70;99.90;;;;;;5029804;28;20474;-79
2021/12/18 02:30:51;;;;;;;26.48;9.02;;;1.70;99.90;;;;;;5031249;28;20029;-78
2021/12/18 02:33:17;;;;;;;14.95;6.43;;;1.60;99.90;;;;;;5032663;28;20071;-78
2021/12/18 02:35:48;;;;;;;19.80;8.95;;;1.50;99.90;;;;;;5029538;28;20029;-78
2021/12/18 02:43:58;;;;;;;11.45;5.60;;;1.40;99.90;;;;;;5031046;28;20108;-78
2021/12/18 02:46:24;;;;;;;15.05;6.35;;;1.30;99.90;;;;;;5033728;28;20036;-78
2021/12/18 02:48:52;;;;;;;11.82;7.07;;;1.40;99.90;;;;;;5034700;28;20109;-78
2021/12/18 02:51:19;;;;;;;10.02;6.28;;;1.40;99.90;;;;;;5033910;28;20083;-77
2021/12/18 02:53:48;;;;;;;8.23;6.18;;;1.40;99.90;;;;;;5032402;28;20445;-78
2021/12/18 02:56:15;;;;;;;15.32;6.70;;;1.40;99.90;;;;;;5032917;28;20168;-77
2021/12/18 02:58:44;;;;;;;21.20;8.00;;;1.30;99.90;;;;;;5031508;28;20048;-78
2021/12/18 03:01:15;;;;;;;22.25;5.60;;;1.20;99.90;;;;;;5015045;28;20104;-77
2021/12/18 03:03:42;;;;;;;10.15;4.68;;;1.30;99.90;;;;;;5035497;28;20105;-78
2021/12/18 03:06:28;;;;;;;9.82;6.10;;;1.30;99.90;;;;;;5036887;28;20025;-78
2021/12/18 03:25:10;;;;;;;14.57;5.47;;;1.20;99.90;;;;;;5033733;28;20029;-76
2021/12/18 03:27:37;;;;;;;7.50;6.05;;;1.20;99.90;;;;;;5035264;28;20029;-77
2021/12/18 03:30:04;;;;;;;6.00;5.10;;;1.10;99.90;;;;;;5035084;28;20089;-78
2021/12/18 03:32:30;;;;;;;11.10;5.07;;;1.20;99.90;;;;;;5035488;28;20485;-77
2021/12/18 03:34:56;;;;;;;10.95;4.22;;;1.20;99.90;;;;;;5033382;28;20030;-77
2021/12/18 03:37:22;;;;;;;14.85;6.57;;;1.10;99.90;;;;;;5037316;28;20129;-77
2021/12/18 03:39:48;;;;;;;12.55;5.45;;;1.10;99.90;;;;;;5037058;28;20053;-79
2021/12/18 03:42:15;;;;;;;9.85;6.45;;;1.10;99.90;;;;;;5036065;28;20061;-78
2021/12/18 03:44:41;;;;;;;8.32;4.78;;;1.00;99.90;;;;;;5036607;28;20051;-77
2021/12/18 03:47:07;;;;;;;19.98;7.30;;;1.10;99.90;;;;;;5035429;28;20393;-78
2021/12/18 03:49:34;;;;;;;21.80;9.13;;;1.00;99.90;;;;;;5035271;28;20025;-78
2021/12/18 03:52:00;;;;;;;16.00;7.45;;;1.10;99.90;;;;;;5033871;28;20034;-77
2021/12/18 03:54:26;;;;;;;18.02;7.63;;;1.00;99.90;;;;;;5034352;28;20044;-77
2021/12/18 03:56:51;;;;;;;19.15;7.40;;;1.00;99.90;;;;;;5031459;28;20030;-78
2021/12/18 03:59:18;;;;;;;12.95;6.15;;;1.00;99.90;;;;;;5031112;28;20037;-78
2021/12/18 04:01:43;;;;;;;14.77;4.93;;;1.00;99.90;;;;;;5029663;28;20037;-78
2021/12/18 04:04:09;;;;;;;23.83;5.25;;;1.10;99.90;;;;;;5030602;28;20029;-78
2021/12/18 04:06:38;;;;;;;16.92;8.13;;;1.10;99.90;;;;;;5029286;28;20018;-78
2021/12/18 04:09:03;;;;;;;12.97;7.83;;;1.00;99.90;;;;;;5029963;28;20028;-77
2021/12/18 04:11:29;;;;;;;36.45;8.27;;;1.00;99.90;;;;;;5029445;28;20498;-78
2021/12/18 04:13:55;;;;;;;9.27;5.22;;;1.00;99.90;;;;;;5029537;28;20029;-77
2021/12/18 04:16:21;;;;;;;12.70;6.70;;;1.00;99.90;;;;;;5028072;28;20090;-79
2021/12/18 04:18:46;;;;;;;16.65;6.55;;;1.00;99.90;;;;;;5029514;28;20510;-78
2021/12/18 04:21:12;;;;;;;20.02;7.28;;;1.00;99.90;;;;;;5029298;28;20453;-78
2021/12/18 04:23:38;;;;;;;10.20;5.78;;;1.10;99.90;;;;;;5029910;28;20244;-79
2021/12/18 04:26:04;;;;;;;12.75;5.25;;;1.10;99.90;;;;;;5028719;28;20029;-78
2021/12/18 04:28:30;;;;;;;13.80;5.15;;;1.10;99.90;;;;;;5028551;28;20022;-79
2021/12/18 04:30:55;;;;;;;13.02;5.80;;;1.20;99.90;;;;;;5029526;28;20029;-79
2021/12/18 04:33:21;;;;;;;16.40;7.82;;;1.10;99.90;;;;;;5027920;28;20025;-78
2021/12/18 04:35:47;;;;;;;20.50;8.80;;;1.00;99.90;;;;;;5027823;28;20095;-79
2021/12/18 04:38:13;;;;;;;14.85;6.82;;;0.90;99.90;;;;;;5029098;28;20115;-78
2021/12/18 04:40:40;;;;;;;11.25;7.28;;;0.90;99.90;;;;;;5029137;28;20387;-78
2021/12/18 04:43:06;;;;;;;7.45;4.35;;;0.90;99.90;;;;;;5027738;28;20469;-77
2021/12/18 04:45:32;;;;;;;13.20;6.85;;;0.90;99.90;;;;;;5029179;28;20039;-76
2021/12/18 04:47:58;;;;;;;13.48;4.90;;;0.80;99.90;;;;;;5031599;28;20032;-77
2021/12/18 04:50:25;;;;;;;10.52;6.43;;;0.70;99.90;;;;;;5031999;28;20088;-78
2021/12/18 04:52:51;;;;;;;14.52;8.48;;;0.50;99.90;;;;;;5033443;28;20493;-77
2021/12/18 04:55:17;;;;;;;20.30;7.25;;;0.40;99.90;;;;;;5032413;28;20029;-78
2021/12/18 04:57:43;;;;;;;13.15;6.70;;;0.30;99.90;;;;;;5031289;28;20559;-77
2021/12/18 05:00:12;;;;;;;11.82;5.32;;;0.20;99.90;;;;;;5032148;28;20529;-79
2021/12/18 05:02:41;;;;;;;10.80;5.28;;;0.10;99.90;;;;;;5032910;28;20289;-80
2021/12/18 05:05:09;;;;;;;7.03;4.80;;;0.00;99.90;;;;;;5034480;28;20374;-79
2021/12/18 05:07:35;;;;;;;20.08;6.50;;;-0.20;99.90;;;;;;5030939;28;20038;-80
2021/12/18 05:10:01;;;;;;;10.90;4.18;;;-0.40;99.90;;;;;;5031023;28;20438;-79
2021/12/18 05:12:26;;;;;;;12.30;4.85;;;-0.50;99.90;;;;;;5031013;28;21125;-78
2021/12/18 05:14:52;;;;;;;12.02;4.90;;;-0.70;99.90;;;;;;5031160;28;20322;-81
2021/12/18 05:17:18;;;;;;;11.35;7.10;;;-0.70;99.90;;;;;;5030590;28;20021;-79
2021/12/18 05:19:43;;;;;;;8.02;6.22;;;-0.50;99.90;;;;;;5030976;28;20029;-77
2021/12/18 05:22:09;;;;;;;8.32;3.67;;;-0.60;99.90;;;;;;5030717;28;20025;-78
2021/12/18 05:24:35;;;;;;;12.85;7.32;;;-0.50;99.90;;;;;;5030602;28;20482;-78
2021/12/18 05:27:01;;;;;;;15.80;7.18;;;-0.70;99.90;;;;;;5031036;28;20051;-77
2021/12/18 05:29:27;;;;;;;8.23;5.00;;;-0.80;99.90;;;;;;5030739;28;20513;-77
2021/12/18 05:31:52;;;;;;;20.95;7.55;;;-0.70;99.90;;;;;;5030438;28;20118;-78
2021/12/18 05:34:23;;;;;;;12.63;5.15;;;-0.50;99.90;;;;;;5031470;28;20032;-77
2021/12/18 05:39:17;;;;;;;11.90;6.68;;;-0.20;99.90;;;;;;5033352;28;20056;-77
2021/12/18 05:41:43;;;;;;;9.88;5.03;;;-0.10;99.90;;;;;;5034636;28;20053;-78
2021/12/18 05:44:09;;;;;;;10.75;6.18;;;0.00;99.90;;;;;;5033435;28;20037;-78
2021/12/18 05:46:35;;;;;;;7.70;5.15;;;0.10;99.90;;;;;;5031902;28;20041;-77
2021/12/18 05:49:02;;;;;;;9.23;6.13;;;0.00;99.90;;;;;;5031960;28;20048;-79
2021/12/18 05:51:28;;;;;;;16.70;8.85;;;0.00;99.90;;;;;;5031937;28;20388;-79
2021/12/18 05:53:53;;;;;;;21.77;5.63;;;0.10;99.90;;;;;;5031639;28;20742;-77
2021/12/18 05:56:19;;;;;;;16.35;4.82;;;0.10;99.90;;;;;;5032055;28;20030;-79
2021/12/18 05:58:45;;;;;;;15.63;6.72;;;0.20;99.90;;;;;;5030825;28;20029;-77
2021/12/18 06:01:14;;;;;;;8.25;5.13;;;0.00;99.90;;;;;;5029920;28;20064;-82
2021/12/18 06:03:40;;;;;;;14.68;6.20;;;0.00;99.90;;;;;;5031538;28;20049;-79
2021/12/18 06:06:06;;;;;;;8.57;5.10;;;0.00;99.90;;;;;;5029502;28;20401;-77
2021/12/18 06:08:34;;;;;;;21.00;4.88;;;0.00;99.90;;;;;;5031731;28;20113;-78
2021/12/18 06:11:06;;;;;;;10.75;6.40;;;0.00;99.90;;;;;;5036706;28;20419;-78
2021/12/18 06:13:31;;;;;;;10.55;5.15;;;0.10;99.90;;;;;;5036363;28;20045;-77
2021/12/18 06:15:58;;;;;;;7.15;5.03;;;0.20;99.90;;;;;;5032421;28;20049;-81
2021/12/18 06:18:24;;;;;;;13.73;4.85;;;0.10;99.90;;;;;;5030811;28;20030;-80
2021/12/18 06:20:49;;;;;;;6.72;4.68;;;0.00;99.90;;;;;;5031571;28;20033;-79
2021/12/18 06:23:15;;;;;;;8.20;4.07;;;0.00;99.90;;;;;;5031756;28;20056;-79
2021/12/18 06:25:40;;;;;;;8.15;5.95;;;0.00;99.90;;;;;;5035762;28;20037;-78
2021/12/18 06:28:06;;;;;;;9.02;5.72;;;0.10;99.90;;;;;;5036344;28;20025;-77
2021/12/18 06:30:32;;;;;;;8.45;5.55;;;0.00;99.90;;;;;;5034356;28;20025;-81
2021/12/18 06:32:57;;;;;;;8.95;4.82;;;0.00;99.90;;;;;;5034970;28;20565;-77
2021/12/18 06:35:23;;;;;;;22.35;5.40;;;0.30;99.90;;;;;;5037199;28;20064;-79
2021/12/18 06:37:50;;;;;;;11.65;5.95;;;-0.10;99.90;;;;;;5035703;28;20042;-78
2021/12/18 06:40:16;;;;;;;7.65;4.20;;;0.30;99.90;;;;;;5034860;28;20040;-80
2021/12/18 06:42:43;;;;;;;7.88;4.53;;;0.00;99.90;;;;;;5030524;28;20029;-77
2021/12/18 06:45:10;;;;;;;11.38;3.92;;;0.00;99.90;;;;;;5033415;28;20025;-76
2021/12/18 06:47:36;;;;;;;47.10;4.60;;;0.10;99.90;;;;;;5033852;28;20094;-76
2021/12/18 06:50:04;;;;;;;6.18;4.63;;;0.30;99.90;;;;;;5035787;28;20041;-77
2021/12/18 06:52:30;;;;;;;14.27;3.72;;;0.00;99.90;;;;;;5040516;28;20032;-78
2021/12/18 06:54:56;;;;;;;6.35;3.13;;;0.00;99.90;;;;;;5036183;28;20096;-78
2021/12/18 06:57:22;;;;;;;9.32;5.75;;;0.30;99.90;;;;;;5036125;28;20029;-77
2021/12/18 06:59:49;;;;;;;24.25;4.70;;;0.10;99.90;;;;;;5040468;28;20120;-77
2021/12/18 07:02:15;;;;;;;16.67;5.95;;;0.10;99.90;;;;;;5035817;28;20108;-76
2021/12/18 07:04:41;;;;;;;10.95;4.97;;;0.10;99.90;;;;;;5036739;28;20021;-77
2021/12/18 07:07:06;;;;;;;11.32;3.92;;;0.20;99.90;;;;;;5038974;28;20031;-77
2021/12/18 07:09:32;;;;;;;14.60;4.05;;;0.10;99.90;;;;;;5032205;28;20092;-76
2021/12/18 07:11:58;;;;;;;11.35;5.07;;;0.20;99.90;;;;;;5033529;28;20025;-76
2021/12/18 07:14:23;;;;;;;17.85;5.88;;;0.20;99.90;;;;;;5035665;28;20025;-77
2021/12/18 07:16:49;;;;;;;20.35;4.55;;;0.20;99.90;;;;;;5037203;28;20029;-78
2021/12/18 07:19:15;;;;;;;9.10;4.78;;;0.60;99.90;;;;;;5038871;28;20022;-78
2021/12/18 07:21:40;;;;;;;16.92;4.85;;;0.30;99.90;;;;;;5037425;28;20413;-76
2021/12/18 07:24:06;;;;;;;15.15;4.90;;;0.30;99.90;;;;;;5038152;28;20593;-77
2021/12/18 07:26:32;;;;;;;5.88;5.35;;;0.30;99.90;;;;;;5039036;28;20541;-76
2021/12/18 07:28:59;;;;;;;33.35;6.10;;;0.50;99.90;;;;;;5040322;28;20018;-76
2021/12/18 07:31:25;;;;;;;13.48;5.97;;;0.20;99.90;;;;;;5034910;28;20060;-76
2021/12/18 07:33:51;;;;;;;35.42;7.97;;;0.20;99.90;;;;;;5031122;28;20025;-76
2021/12/18 07:36:17;;;;;;;35.10;5.22;;;0.30;99.90;;;;;;5032279;28;20037;-76
2021/12/18 07:38:44;;;;;;;9.07;4.57;;;0.40;99.90;;;;;;5038099;28;20041;-76
2021/12/18 07:41:10;;;;;;;15.95;5.82;;;0.40;99.90;;;;;;5035909;28;20072;-77
2021/12/18 07:43:36;;;;;;;12.48;5.47;;;0.50;99.90;;;;;;5031168;28;20104;-76
2021/12/18 07:46:02;;;;;;;31.38;6.90;;;0.50;99.90;;;;;;5029548;28;20026;-76
2021/12/18 07:48:28;;;;;;;13.63;4.82;;;0.50;99.90;;;;;;5029964;28;20116;-76
2021/12/18 07:50:54;;;;;;;18.25;6.82;;;0.50;99.90;;;;;;5031333;28;20064;-78
2021/12/18 07:53:21;;;;;;;23.90;6.85;;;0.50;99.90;;;;;;5033362;28;20029;-81
2021/12/18 07:55:47;;;;;;;13.00;5.05;;;0.50;99.90;;;;;;5033042;28;20033;-76
2021/12/18 07:58:13;;;;;;;25.10;4.00;;;0.60;99.90;;;;;;5038833;28;20021;-75
2021/12/18 08:00:38;;;;;;;31.42;7.88;;;0.60;99.90;;;;;;5037277;28;20100;-76
2021/12/18 08:03:04;;;;;;;23.35;7.68;;;0.60;99.90;;;;;;5024642;28;20030;-75
2021/12/18 08:05:30;;;;;;;31.50;7.72;;;0.60;99.90;;;;;;5009717;28;20032;-76
2021/12/18 08:07:56;;;;;;;9.25;6.85;;;0.60;99.90;;;;;;5014450;28;20017;-76
2021/12/18 08:10:21;;;;;;;16.15;6.43;;;0.60;99.90;;;;;;5035360;28;20067;-77
2021/12/18 08:12:47;;;;;;;19.98;7.15;;;0.70;99.90;;;;;;5036123;28;20075;-76
2021/12/18 08:15:13;;;;;;;11.82;5.93;;;0.70;99.90;;;;;;5033583;28;20704;-76
2021/12/18 08:17:39;;;;;;;16.80;6.65;;;0.70;99.90;;;;;;5036330;28;20086;-76
2021/12/18 08:20:06;;;;;;;16.25;5.43;;;0.70;99.90;;;;;;5039214;28;20037;-76
2021/12/18 08:22:32;;;;;;;15.27;8.52;;;0.80;99.90;;;;;;5033994;28;20517;-76
2021/12/18 08:24:58;;;;;;;15.05;6.13;;;0.80;99.90;;;;;;5033350;28;20029;-77
2021/12/18 08:27:24;;;;;;;25.00;8.63;;;0.80;99.90;;;;;;5038534;28;20028;-77
2021/12/18 08:29:49;;;;;;;12.27;5.25;;;0.80;99.90;;;;;;5036640;28;20025;-78
2021/12/18 08:32:15;;;;;;;7.03;4.93;;;0.80;99.90;;;;;;5040562;28;20462;-76
2021/12/18 08:34:41;;;;;;;23.05;7.28;;;0.80;99.90;;;;;;5040342;28;20029;-76
2021/12/18 08:37:07;;;;;;;22.85;7.70;;;0.70;99.90;;;;;;5039161;28;20080;-76
2021/12/18 08:39:32;;;;;;;16.05;8.60;;;0.70;99.90;;;;;;5041326;28;20018;-76
2021/12/18 08:42:02;;;;;;;30.75;8.77;;;0.80;99.90;;;;;;5037919;28;20064;-76
2021/12/18 08:44:28;;;;;;;10.20;6.35;;;0.80;99.90;;;;;;5036534;28;20493;-76
2021/12/18 08:46:54;;;;;;;15.93;5.80;;;0.80;99.90;;;;;;5035287;28;20053;-77
2021/12/18 08:49:21;;;;;;;20.63;7.43;;;0.70;99.90;;;;;;5037137;28;20037;-77
2021/12/18 08:51:47;;;;;;;11.60;6.90;;;0.70;99.90;;;;;;5037042;28;20034;-77
2021/12/18 08:54:12;;;;;;;23.25;5.38;;;0.70;99.90;;;;;;5039597;28;20036;-76
2021/12/18 08:56:38;;;;;;;17.50;7.95;;;0.70;99.90;;;;;;5043341;28;20048;-78
2021/12/18 08:59:04;;;;;;;14.88;5.85;;;2.30;99.90;;;;;;5034146;28;20548;-77
2021/12/18 09:01:30;;;;;;;21.77;5.78;;;0.80;99.90;;;;;;5038025;28;20061;-77
2021/12/18 09:03:56;;;;;;;12.48;6.93;;;0.90;99.90;;;;;;5039162;28;20128;-77
2021/12/18 09:06:22;;;;;;;17.67;6.72;;;0.90;99.90;;;;;;5040988;28;20525;-78
2021/12/18 09:08:49;;;;;;;13.80;7.13;;;1.00;99.90;;;;;;5042789;28;20390;-77
2021/12/18 09:11:15;;;;;;;14.55;6.15;;;1.10;99.90;;;;;;5038296;28;20033;-77
2021/12/18 09:13:41;;;;;;;17.52;5.82;;;1.10;99.90;;;;;;5038013;28;20017;-77
2021/12/18 09:16:07;;;;;;;12.65;5.88;;;1.10;99.90;;;;;;5040073;28;20026;-77
2021/12/18 09:18:33;;;;;;;21.42;9.25;;;1.10;99.90;;;;;;5036024;28;20075;-75
2021/12/18 09:20:59;;;;;;;17.63;8.98;;;1.10;99.90;;;;;;5036872;28;20107;-76
2021/12/18 09:23:25;;;;;;;7.60;4.25;;;1.10;99.90;;;;;;5037860;28;20053;-77
2021/12/18 09:25:51;;;;;;;13.43;8.50;;;1.10;99.90;;;;;;5037890;28;20029;-77
2021/12/18 09:28:17;;;;;;;21.33;6.25;;;1.20;99.90;;;;;;5036793;28;20555;-77
2021/12/18 09:30:43;;;;;;;19.20;5.53;;;1.20;99.90;;;;;;5042419;28;20114;-76
2021/12/18 09:33:15;;;;;;;13.68;6.65;;;1.10;99.90;;;;;;5031955;28;20021;-77
2021/12/18 09:35:40;;;;;;;19.95;7.80;;;1.20;99.90;;;;;;5034005;28;20029;-77
2021/12/18 09:38:06;;;;;;;6.60;5.25;;;1.30;99.90;;;;;;5034998;28;20038;-76
2021/12/18 09:40:32;;;;;;;15.32;6.60;;;1.40;99.90;;;;;;5030195;28;20061;-77
2021/12/18 09:42:58;;;;;;;28.15;7.68;;;1.40;99.90;;;;;;5033217;28;20041;-77
2021/12/18 09:45:25;;;;;;;15.30;5.72;;;1.30;99.90;;;;;;5051180;28;20025;-76
2021/12/18 09:47:52;;;;;;;19.45;6.72;;;1.30;99.90;;;;;;5038529;28;20026;-77
2021/12/18 09:50:21;;;;;;;17.50;5.97;;;1.30;99.90;;;;;;5043683;28;20021;-76
2021/12/18 09:52:47;;;;;;;;;;;1.30;99.90;;;;;;5045646;28;20048;-75
2021/12/18 09:55:13;;;;;;;15.05;5.78;;;1.40;99.90;;;;;;5029104;28;19909;-76
2021/12/18 09:57:40;;;;;;;10.75;4.88;;;1.50;99.90;;;;;;5020448;28;20075;-76
2021/12/18 10:00:15;;;;;;;8.77;5.10;;;1.60;99.90;;;;;;5021648;28;20036;-76
2021/12/18 10:02:41;;;;;;;7.68;4.82;;;1.70;99.90;;;;;;5038491;28;20036;-76
2021/12/18 10:05:24;;;;;;;4.97;3.63;;;1.80;99.90;;;;;;5044476;28;20068;-76
2021/12/18 10:08:11;;;;;;;9.88;6.75;;;1.80;99.90;;;;;;5046838;28;20029;-77
2021/12/18 10:10:38;;;;;;;11.20;5.78;;;1.90;99.90;;;;;;5047797;28;20309;-76
2021/12/18 10:13:09;;;;;;;17.88;8.93;;;1.90;99.90;;;;;;5042478;28;20036;-75
2021/12/18 10:15:37;;;;;;;16.75;5.03;;;1.70;99.90;;;;;;5041125;28;20017;-75
2021/12/18 10:18:09;;;;;;;21.50;6.97;;;1.70;99.90;;;;;;5034196;28;20112;-76
2021/12/18 10:20:37;;;;;;;13.57;4.55;;;1.90;99.90;;;;;;5032126;28;20037;-76
2021/12/18 10:23:05;;;;;;;11.48;4.75;;;2.00;99.90;;;;;;5033620;28;20084;-77
2021/12/18 10:25:42;;;;;;;10.40;5.45;;;1.90;99.90;;;;;;5022434;28;20096;-77
2021/12/18 10:28:16;;;;;;;17.60;7.60;;;1.80;99.90;;;;;;5058348;28;20049;-76
2021/12/18 10:30:45;;;;;;;19.10;6.82;;;1.80;99.90;;;;;;5043164;28;20029;-77
2021/12/18 10:33:12;;;;;;;5.55;3.22;;;1.80;99.90;;;;;;5042704;28;20022;-76
2021/12/18 10:35:43;;;;;;;14.68;6.63;;;1.90;99.90;;;;;;5041861;28;20029;-77
2021/12/18 10:38:29;;;;;;;4.60;4.28;;;1.80;99.90;;;;;;5034188;28;20104;-77
2021/12/18 10:40:55;;;;;;;15.32;6.00;;;1.80;99.90;;;;;;5043258;28;20030;-77
2021/12/18 10:43:20;;;;;;;6.10;4.20;;;1.80;99.90;;;;;;5039876;28;20029;-77
2021/12/18 10:45:46;;;;;;;14.73;5.68;;;1.80;99.90;;;;;;5041226;28;20036;-76
2021/12/18 10:48:16;;;;;;;7.00;2.55;;;1.70;99.90;;;;;;5037915;28;20026;-77
2021/12/18 10:50:51;;;;;;;5.97;4.53;;;1.80;99.90;;;;;;5036709;28;20030;-78
2021/12/18 10:53:25;;;;;;;9.23;5.15;;;1.70;99.90;;;;;;5022450;28;20030;-76
2021/12/18 10:55:52;;;;;;;28.02;6.78;;;1.80;99.90;;;;;;5014172;28;20030;-78
2021/12/18 10:58:30;;;;;;;19.15;8.02;;;1.90;99.90;;;;;;5012070;28;20105;-76
2021/12/18 11:01:10;;;;;;;5.85;4.30;;;2.00;99.90;;;;;;5012889;28;20030;-76
2021/12/18 11:03:51;;;;;;;5.70;5.00;;;1.90;99.90;;;;;;5022277;28;20022;-76
2021/12/18 11:06:21;;;;;;;11.00;2.95;;;1.90;99.90;;;;;;5030329;28;20598;-76
2021/12/18 11:09:05;;;;;;;16.52;5.60;;;1.80;99.90;;;;;;5020055;28;20037;-76
2021/12/18 11:14:06;;;;;;;24.15;6.75;;;1.90;99.90;;;;;;5020373;28;20018;-75
2021/12/18 11:16:40;;;;;;;11.68;4.72;;;1.80;99.90;;;;;;5021506;28;20033;-77
2021/12/18 11:19:11;;;;;;;17.02;6.43;;;1.70;99.90;;;;;;5020786;28;20069;-77
2021/12/18 11:21:38;;;;;;;16.35;6.25;;;1.60;99.90;;;;;;5018637;28;20056;-77
2021/12/18 11:24:04;;;;;;;21.20;7.05;;;1.60;99.90;;;;;;5014801;28;20036;-76
2021/12/18 11:26:42;;;;;;;15.15;6.35;;;1.40;99.90;;;;;;5013647;28;20076;-75
2021/12/18 11:29:14;;;;;;;24.02;8.57;;;1.70;99.90;;;;;;5023339;28;20060;-75
2021/12/18 11:31:42;;;;;;;5.07;3.55;;;1.50;99.90;;;;;;5018466;28;20387;-76
2021/12/18 11:34:08;;;;;;;11.70;4.20;;;1.70;99.90;;;;;;5023234;28;20044;-77
2021/12/18 11:36:37;;;;;;;9.23;4.70;;;1.80;99.90;;;;;;5021470;28;20064;-77
2021/12/18 11:39:03;;;;;;;10.07;5.82;;;1.80;99.90;;;;;;5030904;28;20117;-77
2021/12/18 11:41:29;;;;;;;21.55;7.18;;;1.80;99.90;;;;;;5034673;28;20041;-75
2021/12/18 11:43:54;;;;;;;10.30;5.13;;;1.80;99.90;;;;;;5026791;28;20032;-78
2021/12/18 11:46:33;;;;;;;16.65;6.55;;;1.90;99.90;;;;;;5018723;28;20030;-77
2021/12/18 11:49:05;;;;;;;14.73;5.55;;;2.00;99.90;;;;;;5020293;28;20058;-77
2021/12/18 11:51:31;;;;;;;21.90;5.60;;;1.90;99.90;;;;;;5036573;28;20029;-75
2021/12/18 11:53:58;;;;;;;16.73;6.90;;;1.80;99.90;;;;;;5041947;28;20056;-76
2021/12/18 11:56:25;;;;;;;11.68;4.05;;;1.80;99.90;;;;;;5041163;28;20017;-75
2021/12/18 11:58:51;;;;;;;18.70;7.30;;;1.80;99.90;;;;;;5043367;28;20032;-75
2021/12/18 12:01:25;;;;;;;12.23;5.70;;;1.80;99.90;;;;;;5047163;28;20033;-76
2021/12/18 12:03:51;;;;;;;21.65;8.02;;;1.90;99.90;;;;;;5035939;28;20025;-75
2021/12/18 12:06:21;;;;;;;16.58;5.72;;;1.90;99.90;;;;;;5035579;28;20017;-75
2021/12/18 12:08:50;;;;;;;11.52;4.30;;;1.90;99.90;;;;;;5042836;28;20018;-75
2021/12/18 12:11:23;;;;;;;8.63;3.92;;;2.00;99.90;;;;;;5059795;28;20022;-75
2021/12/18 12:14:08;;;;;;;10.80;4.18;;;1.90;99.90;;;;;;5045775;28;20103;-77
2021/12/18 12:16:46;;;;;;;13.55;4.90;;;1.90;99.90;;;;;;5047968;28;20141;-77
2021/12/18 12:19:20;;;;;;;12.68;6.15;;;2.00;99.90;;;;;;5048313;28;20025;-76
2021/12/18 12:21:47;;;;;;;18.63;4.32;;;1.90;99.90;;;;;;5046110;28;20037;-76
2021/12/18 12:24:19;;;;;;;13.57;7.00;;;1.90;99.90;;;;;;5037755;28;20542;-75
2021/12/18 12:26:45;;;;;;;13.43;5.80;;;1.80;99.90;;;;;;5037897;28;20033;-75
2021/12/18 12:29:13;;;;;;;9.27;4.53;;;1.90;99.90;;;;;;5039911;28;20021;-77
2021/12/18 12:31:57;;;;;;;11.60;4.78;;;1.90;99.90;;;;;;5045404;28;20028;-77
2021/12/18 12:34:30;;;;;;;15.48;4.60;;;1.80;99.90;;;;;;5045978;28;20025;-76
2021/12/18 12:36:59;;;;;;;11.30;6.00;;;1.80;99.90;;;;;;5025553;28;20026;-77
2021/12/18 12:39:46;;;;;;;5.43;4.13;;;1.90;99.90;;;;;;5028348;28;20034;-76
2021/12/18 12:42:12;;;;;;;11.00;5.75;;;1.80;99.90;;;;;;5025109;28;20061;-77
2021/12/18 12:44:48;;;;;;;2.17;2.08;;;1.70;99.90;;;;;;5029531;28;20029;-75
2021/12/18 12:47:18;;;;;;;12.13;6.22;;;1.70;99.90;;;;;;5025904;28;20478;-76
2021/12/18 12:49:46;;;;;;;8.65;5.20;;;1.70;99.90;;;;;;5021722;28;20030;-76
2021/12/18 12:52:17;;;;;;;12.85;5.18;;;1.80;99.90;;;;;;5022743;28;20033;-77
2021/12/18 12:54:46;;;;;;;10.80;4.82;;;1.80;99.90;;;;;;5017524;28;20093;-76
2021/12/18 12:57:27;;;;;;;13.80;5.97;;;1.80;99.90;;;;;;5023646;28;20018;-76
2021/12/18 12:59:59;;;;;;;13.77;6.05;;;1.70;99.90;;;;;;5038292;28;20025;-76
2021/12/18 13:02:27;;;;;;;14.95;6.45;;;1.70;99.90;;;;;;5040868;28;20426;-77
2021/12/18 13:05:01;;;;;;;9.90;5.63;;;1.60;99.90;;;;;;5035440;28;20022;-75
2021/12/18 13:07:27;;;;;;;15.73;6.05;;;1.50;99.90;;;;;;5030423;28;20056;-76
2021/12/18 13:09:52;;;;;;;18.65;6.47;;;1.40;99.90;;;;;;5033706;28;20045;-77
2021/12/18 13:12:18;;;;;;;10.15;5.93;;;1.50;99.90;;;;;;5021520;28;20075;-76
2021/12/18 13:14:45;;;;;;;13.52;7.00;;;1.40;99.90;;;;;;5011990;28;20192;-76
2021/12/18 13:17:26;;;;;;;10.98;4.97;;;2.40;99.90;;;;;;5016172;28;20022;-75
2021/12/18 13:19:56;;;;;;;13.27;6.10;;;1.30;99.90;;;;;;5015891;28;20026;-76
2021/12/18 13:22:25;;;;;;;15.85;5.22;;;1.30;99.90;;;;;;5022446;28;20071;-76
2021/12/18 13:25:14;;;;;;;10.85;6.30;;;1.30;99.90;;;;;;5015679;28;20034;-76
2021/12/18 13:28:03;;;;;;;21.10;4.43;;;1.30;99.90;;;;;;5033005;28;20100;-76
2021/12/18 13:30:30;;;;;;;16.10;4.53;;;1.40;99.90;;;;;;5029068;28;20026;-76
2021/12/18 13:32:58;;;;;;;17.20;7.35;;;1.30;99.90;;;;;;5039026;28;20076;-77
2021/12/18 13:35:26;;;;;;;21.90;7.95;;;1.10;99.90;;;;;;5038524;28;20105;-77
2021/12/18 13:38:02;;;;;;;9.63;5.75;;;1.10;99.90;;;;;;5037345;28;20053;-75
2021/12/18 13:40:36;;;;;;;10.88;4.65;;;1.10;99.90;;;;;;5038425;28;20030;-76
2021/12/18 13:43:07;;;;;;;20.42;6.65;;;1.20;99.90;;;;;;5037874;28;20036;-75
2021/12/18 13:45:48;;;;;;;13.15;4.75;;;1.30;99.90;;;;;;5039781;28;20049;-76